createdAt,value
2023-02-24T00:02:26.544Z,7.55
2023-02-24T00:04:59.516Z,7.56
2023-02-24T00:07:31.165Z,7.47
2023-02-24T00:09:59.747Z,7.46
2023-02-24T00:12:29.863Z,7.52
2023-02-24T00:14:58.512Z,7.52
2023-02-24T00:17:28.857Z,7.50
2023-02-24T00:19:59.381Z,7.51
2023-02-24T00:22:33.995Z,7.46
2023-02-24T00:25:04.424Z,7.42
2023-02-24T00:27:35.465Z,7.48
2023-02-24T00:30:05.389Z,7.35
2023-02-24T00:32:36.396Z,7.31
2023-02-24T00:35:05.739Z,7.32
2023-02-24T00:37:34.594Z,7.31
2023-02-24T00:40:20.538Z,7.27
2023-02-24T00:42:49.122Z,7.33
2023-02-24T00:45:17.819Z,7.36
2023-02-24T00:47:49.424Z,7.24
2023-02-24T00:50:18.424Z,7.34
2023-02-24T00:52:51.684Z,7.18
2023-02-24T00:55:23.937Z,7.14
2023-02-24T00:57:52.315Z,7.19
2023-02-24T01:00:23.560Z,7.08
2023-02-24T01:02:55.394Z,7.04
2023-02-24T01:05:29.545Z,7.03
2023-02-24T01:08:00.019Z,7.04
2023-02-24T01:10:32.871Z,6.97
2023-02-24T01:13:03.162Z,6.98
2023-02-24T01:15:33.512Z,6.82
2023-02-24T01:18:04.786Z,6.89
2023-02-24T01:20:33.689Z,6.84
2023-02-24T01:23:03.850Z,6.81
2023-02-24T01:25:32.604Z,6.75
2023-02-24T01:28:01.222Z,6.64
2023-02-24T01:30:31.455Z,6.55
2023-02-24T01:33:00.714Z,6.46
2023-02-24T01:35:31.264Z,6.40
2023-02-24T01:38:01.834Z,5.85
2023-02-24T01:40:30.666Z,6.28
2023-02-24T01:42:59.347Z,6.18
2023-02-24T01:45:30.664Z,6.13
2023-02-24T01:48:02.382Z,6.18
2023-02-24T01:50:33.106Z,6.20
2023-02-24T01:53:04.921Z,6.18
2023-02-24T01:55:36.983Z,6.26
2023-02-24T01:58:08.627Z,6.27
2023-02-24T02:00:43.748Z,6.22
2023-02-24T02:03:37.906Z,6.23
2023-02-24T02:06:13.050Z,6.19
2023-02-24T02:08:43.989Z,6.07
2023-02-24T02:11:19.900Z,5.96
2023-02-24T02:13:51.614Z,5.75
2023-02-24T02:16:59.371Z,5.80
2023-02-24T02:19:47.325Z,5.75
2023-02-24T02:22:38.146Z,5.66
2023-02-24T02:25:25.532Z,5.56
2023-02-24T02:28:06.393Z,5.57
2023-02-24T02:30:44.112Z,5.49
2023-02-24T02:33:27.810Z,5.52
2023-02-24T02:36:02.305Z,5.47
2023-02-24T02:38:58.480Z,5.53
2023-02-24T02:41:47.471Z,5.29
2023-02-24T02:44:29.786Z,5.53
2023-02-24T02:47:25.215Z,5.54
2023-02-24T02:49:58.881Z,5.61
2023-02-24T02:52:36.680Z,5.59
2023-02-24T02:55:19.020Z,5.55
2023-02-24T02:57:52.006Z,5.57
2023-02-24T03:00:28.159Z,5.51
2023-02-24T03:03:01.399Z,5.48
2023-02-24T03:05:34.228Z,5.45
2023-02-24T03:08:05.185Z,5.32
2023-02-24T03:10:35.910Z,5.37
2023-02-24T03:13:07.202Z,5.41
2023-02-24T03:15:39.528Z,5.41
2023-02-24T03:18:11.167Z,5.45
2023-02-24T03:20:44.384Z,5.48
2023-02-24T03:23:17.750Z,5.50
2023-02-24T03:26:01.055Z,5.59
2023-02-24T03:28:37.277Z,5.71
2023-02-24T03:31:10.569Z,5.73
2023-02-24T03:33:44.753Z,5.81
2023-02-24T03:36:15.179Z,5.74
2023-02-24T03:38:46.313Z,5.68
2023-02-24T03:41:17.139Z,5.72
2023-02-24T03:43:50.143Z,5.70
2023-02-24T03:46:19.390Z,5.70
2023-02-24T03:48:51.240Z,5.67
2023-02-24T03:51:24.791Z,5.73
2023-02-24T03:54:26.745Z,5.72
2023-02-24T03:57:06.357Z,5.82
2023-02-24T03:59:53.025Z,5.83
2023-02-24T04:02:28.182Z,5.86
2023-02-24T04:04:59.866Z,5.80
2023-02-24T04:07:57.149Z,5.80
2023-02-24T04:10:45.651Z,5.82
2023-02-24T04:13:42.535Z,5.81
2023-02-24T04:16:20.274Z,5.90
2023-02-24T04:18:49.374Z,5.81
2023-02-24T04:21:21.139Z,5.75
2023-02-24T04:23:50.445Z,5.87
2023-02-24T04:26:20.750Z,5.96
2023-02-24T04:28:49.780Z,5.94
2023-02-24T04:31:21.144Z,5.94
2023-02-24T04:33:53.504Z,6.04
2023-02-24T04:36:23.031Z,6.04
2023-02-24T04:38:52.301Z,6.06
2023-02-24T04:41:23.843Z,6.14
2023-02-24T04:43:52.725Z,6.17
2023-02-24T04:46:23.544Z,6.24
2023-02-24T04:48:52.199Z,6.15
2023-02-24T04:51:21.388Z,6.19
2023-02-24T04:53:52.892Z,6.23
2023-02-24T04:56:22.498Z,6.25
2023-02-24T04:58:51.139Z,6.19
2023-02-24T05:01:20.143Z,6.26
2023-02-24T05:03:48.955Z,6.12
2023-02-24T05:06:20.493Z,6.16
2023-02-24T05:08:50.802Z,6.19
2023-02-24T05:11:20.303Z,6.10
2023-02-24T05:13:52.201Z,6.12
2023-02-24T05:16:20.942Z,6.18
2023-02-24T05:18:49.734Z,6.28
2023-02-24T05:21:37.243Z,6.22
2023-02-24T05:24:08.797Z,6.25
2023-02-24T05:26:41.132Z,6.20
2023-02-24T05:29:09.979Z,6.07
2023-02-24T05:31:39.219Z,6.19
2023-02-24T05:34:09.149Z,6.30
2023-02-24T05:36:40.962Z,6.29
2023-02-24T05:39:11.760Z,6.22
2023-02-24T05:41:42.755Z,6.25
2023-02-24T05:44:17.076Z,6.20
2023-02-24T05:46:49.133Z,6.22
2023-02-24T05:49:28.160Z,6.28
2023-02-24T05:52:06.066Z,6.23
2023-02-24T05:54:38.247Z,6.25
2023-02-24T05:57:17.159Z,6.19
2023-02-24T05:59:46.356Z,6.10
2023-02-24T06:02:16.751Z,6.22
2023-02-24T06:04:54.320Z,6.20
2023-02-24T06:07:26.134Z,6.39
2023-02-24T06:09:57.536Z,6.27
2023-02-24T06:12:29.421Z,6.34
2023-02-24T06:15:00.880Z,6.32
2023-02-24T06:17:30.128Z,6.25
2023-02-24T06:19:59.019Z,6.38
2023-02-24T06:22:28.822Z,6.25
2023-02-24T06:24:59.261Z,6.19
2023-02-24T06:27:28.086Z,6.27
2023-02-24T06:29:57.775Z,6.23
2023-02-24T06:32:27.481Z,6.22
2023-02-24T06:34:57.692Z,6.26
2023-02-24T06:37:26.812Z,6.25
2023-02-24T06:39:55.446Z,6.22
2023-02-24T06:42:30.148Z,6.29
2023-02-24T06:44:58.360Z,6.42
2023-02-24T06:47:27.001Z,6.70
2023-02-24T06:49:55.725Z,6.94
2023-02-24T06:52:25.886Z,6.66
2023-02-24T06:54:54.519Z,6.91
2023-02-24T06:57:23.693Z,6.94
2023-02-24T06:59:52.385Z,6.84
2023-02-24T07:02:21.232Z,6.93
2023-02-24T07:04:50.019Z,6.90
2023-02-24T07:07:19.945Z,6.91
2023-02-24T07:09:48.889Z,6.97
2023-02-24T07:12:19.382Z,7.10
2023-02-24T07:14:49.859Z,7.37
2023-02-24T07:17:19.681Z,7.51
2023-02-24T07:19:48.280Z,7.42
2023-02-24T07:22:20.186Z,7.47
2023-02-24T07:24:50.675Z,7.47
2023-02-24T07:27:23.267Z,7.27
2023-02-24T07:29:55.924Z,7.65
2023-02-24T07:32:35.311Z,7.61
2023-02-24T07:35:02.849Z,7.56
2023-02-24T07:37:31.934Z,7.55
2023-02-24T07:40:02.251Z,7.55
2023-02-24T07:42:32.918Z,7.35
2023-02-24T07:45:01.635Z,7.44
2023-02-24T07:47:30.182Z,7.60
2023-02-24T07:50:00.498Z,7.57
2023-02-24T07:52:30.734Z,7.48
2023-02-24T07:55:00.241Z,7.40
2023-02-24T07:57:29.030Z,7.35
2023-02-24T07:59:57.650Z,7.36
2023-02-24T08:02:26.938Z,7.39
2023-02-24T08:04:55.724Z,7.20
2023-02-24T08:07:28.383Z,7.07
2023-02-24T08:10:16.499Z,7.07
2023-02-24T08:12:47.688Z,7.15
2023-02-24T08:15:21.218Z,7.21
2023-02-24T08:17:50.119Z,7.26
2023-02-24T08:20:20.785Z,7.46
2023-02-24T08:22:53.889Z,7.64
2023-02-24T08:25:25.424Z,7.67
2023-02-24T08:28:12.496Z,7.68
2023-02-24T08:30:30.175Z,7.63
2023-02-24T08:33:01.481Z,7.95
2023-02-24T08:35:32.715Z,8.36
2023-02-24T08:38:07.815Z,8.63
2023-02-24T08:40:41.003Z,8.77
2023-02-24T08:43:20.269Z,9.04
2023-02-24T08:45:52.185Z,9.25
2023-02-24T08:48:26.914Z,9.04
2023-02-24T08:50:57.665Z,9.52
2023-02-24T08:53:39.047Z,9.55
2023-02-24T08:56:11.677Z,10.00
2023-02-24T08:58:44.833Z,10.30
2023-02-24T09:01:23.714Z,10.70
2023-02-24T09:03:56.118Z,10.65
2023-02-24T09:06:39.868Z,10.59
2023-02-24T09:09:19.607Z,10.83
2023-02-24T09:11:57.387Z,10.76
2023-02-24T09:14:29.526Z,10.80
2023-02-24T09:17:10.062Z,10.94
2023-02-24T09:19:49.057Z,10.61
2023-02-24T09:22:33.251Z,10.51
2023-02-24T09:25:18.894Z,10.51
2023-02-24T09:27:56.026Z,10.33
2023-02-24T09:30:37.493Z,10.07
2023-02-24T09:33:13.358Z,10.10
2023-02-24T09:35:43.346Z,9.86
2023-02-24T09:38:13.617Z,9.70
2023-02-24T09:40:43.923Z,9.66
2023-02-24T09:43:17.238Z,9.62
2023-02-24T09:45:58.680Z,9.82
2023-02-24T09:48:40.905Z,9.94
2023-02-24T09:51:10.570Z,10.36
2023-02-24T09:53:43.860Z,10.77
2023-02-24T09:56:41.625Z,10.69
2023-02-24T09:59:20.753Z,10.77
2023-02-24T10:02:08.955Z,11.31
2023-02-24T10:05:04.807Z,11.60
2023-02-24T10:07:38.088Z,11.56
2023-02-24T10:10:23.485Z,11.87
2023-02-24T10:12:58.519Z,11.67
2023-02-24T10:15:58.686Z,11.59
2023-02-24T10:18:30.519Z,11.44
2023-02-24T10:21:16.844Z,11.24
2023-02-24T10:24:00.577Z,10.91
2023-02-24T10:27:01.240Z,10.83
2023-02-24T10:29:43.577Z,10.95
2023-02-24T10:32:37.798Z,10.59
2023-02-24T10:35:09.501Z,10.74
2023-02-24T10:37:38.060Z,10.89
2023-02-24T10:40:13.040Z,11.03
2023-02-24T10:42:44.568Z,11.30
2023-02-24T10:45:20.686Z,11.48
2023-02-24T10:47:58.984Z,11.29
2023-02-24T10:50:32.793Z,10.93
2023-02-24T10:53:11.444Z,10.89
2023-02-24T10:55:47.440Z,10.74
2023-02-24T10:58:46.458Z,11.01
2023-02-24T11:01:25.636Z,11.28
2023-02-24T11:04:01.933Z,11.23
2023-02-24T11:06:44.375Z,11.63
2023-02-24T11:09:35.458Z,12.04
2023-02-24T11:12:28.158Z,11.99
2023-02-24T11:15:23.242Z,12.49
2023-02-24T11:17:58.954Z,13.16
2023-02-24T11:20:48.870Z,13.06
2023-02-24T11:23:14.693Z,12.86
2023-02-24T11:25:54.234Z,12.65
2023-02-24T11:28:27.508Z,12.96
2023-02-24T11:31:10.198Z,13.12
2023-02-24T11:33:53.926Z,13.57
2023-02-24T11:36:58.847Z,13.68
2023-02-24T11:39:47.712Z,14.52
2023-02-24T11:42:32.712Z,13.85
2023-02-24T11:45:23.179Z,14.38
2023-02-24T11:48:09.116Z,14.41
2023-02-24T11:51:02.112Z,14.74
2023-02-24T11:53:42.093Z,14.31
2023-02-24T11:56:33.222Z,14.59
2023-02-24T11:59:23.243Z,15.05
2023-02-24T12:02:28.266Z,14.87
2023-02-24T12:05:38.196Z,14.64
2023-02-24T12:08:13.968Z,14.46
2023-02-24T12:11:03.258Z,14.63
2023-02-24T12:13:48.496Z,14.84
2023-02-24T12:16:24.008Z,15.11
2023-02-24T12:22:29.364Z,14.26
2023-02-24T12:25:00.782Z,13.71
2023-02-24T12:31:29.585Z,14.43
2023-02-24T12:38:06.163Z,14.57
2023-02-24T12:43:53.920Z,14.57
2023-02-24T12:57:01.280Z,12.90
2023-02-24T12:59:35.211Z,12.99
2023-02-24T13:02:21.909Z,12.68
2023-02-24T13:05:17.753Z,12.52
2023-02-24T13:07:55.222Z,12.53
2023-02-24T13:13:39.281Z,11.65
2023-02-24T13:16:12.644Z,12.03
2023-02-24T13:18:43.566Z,11.99
2023-02-24T13:21:19.460Z,11.95
2023-02-24T13:23:58.266Z,11.74
2023-02-24T13:26:29.853Z,11.95
2023-02-24T13:29:19.904Z,12.18
2023-02-24T13:37:50.137Z,12.17
2023-02-24T13:40:31.073Z,12.27
2023-02-24T13:43:19.221Z,12.11
2023-02-24T13:46:02.384Z,12.00
2023-02-24T13:48:48.479Z,11.93
2023-02-24T13:51:59.218Z,12.07
2023-02-24T13:55:00.135Z,12.28
2023-02-24T13:57:54.433Z,12.16
2023-02-24T14:03:34.099Z,12.15
2023-02-24T14:06:04.995Z,12.33
2023-02-24T14:08:51.669Z,12.22
2023-02-24T14:11:23.629Z,12.14
2023-02-24T14:14:08.566Z,12.35
2023-02-24T14:16:40.135Z,12.35
2023-02-24T14:19:17.515Z,12.00
2023-02-24T14:21:57.663Z,11.73
2023-02-24T14:33:51.267Z,11.14
2023-02-24T14:36:35.219Z,10.97
2023-02-24T14:39:47.230Z,10.96
2023-02-24T14:50:01.926Z,10.72
2023-02-24T14:52:52.133Z,11.10
2023-02-24T14:55:24.293Z,11.39
2023-02-24T14:58:04.941Z,11.49
2023-02-24T15:00:45.271Z,11.55
2023-02-24T15:03:25.789Z,11.22
2023-02-24T15:06:00.991Z,11.35
2023-02-24T15:08:45.014Z,11.64
2023-02-24T15:11:26.106Z,11.83
2023-02-24T15:14:12.853Z,12.03
2023-02-24T15:17:02.057Z,11.94
2023-02-24T15:19:49.633Z,11.82
2023-02-24T15:23:09.989Z,11.63
2023-02-24T15:26:36.414Z,11.64
2023-02-24T15:29:40.662Z,11.34
2023-02-24T15:38:50.344Z,10.81
2023-02-24T15:41:50.428Z,10.79
2023-02-24T15:48:01.038Z,10.86
2023-02-24T15:51:00.328Z,10.45
2023-02-24T16:00:34.844Z,10.37
2023-02-24T16:06:47.797Z,10.44
2023-02-24T16:07:05.625Z,10.37
2023-02-24T16:13:06.071Z,10.07
2023-02-24T16:22:50.895Z,9.76
2023-02-24T16:29:25.108Z,9.82
2023-02-24T16:32:04.656Z,9.90
2023-02-24T16:41:42.391Z,9.89
2023-02-24T16:44:05.589Z,9.64
2023-02-24T16:46:41.567Z,9.46
2023-02-24T16:49:19.042Z,9.49
2023-02-24T16:51:52.303Z,9.41
2023-02-24T16:54:25.799Z,9.31
2023-02-24T16:57:16.297Z,9.30
2023-02-24T16:59:45.363Z,9.32
2023-02-24T17:02:32.433Z,9.26
2023-02-24T17:05:17.518Z,9.32
2023-02-24T17:07:47.397Z,9.32
2023-02-24T17:10:17.833Z,9.27
2023-02-24T17:12:48.969Z,9.27
2023-02-24T17:15:21.096Z,9.31
2023-02-24T17:17:49.882Z,9.34
2023-02-24T17:20:22.366Z,9.29
2023-02-24T17:22:51.143Z,9.27
2023-02-24T17:25:23.418Z,9.24
2023-02-24T17:27:54.536Z,9.17
2023-02-24T17:30:26.213Z,9.12
2023-02-24T17:32:56.617Z,9.08
2023-02-24T17:35:25.818Z,8.97
2023-02-24T17:37:55.431Z,8.90
2023-02-24T17:40:27.682Z,8.42
2023-02-24T17:43:04.437Z,8.84
2023-02-24T17:45:34.138Z,8.81
2023-02-24T17:48:04.564Z,8.72
2023-02-24T17:50:33.569Z,8.73
2023-02-24T17:53:02.458Z,8.70
2023-02-24T17:55:34.582Z,8.53
2023-02-24T17:58:05.225Z,8.48
2023-02-24T18:00:41.704Z,8.44
2023-02-24T18:03:14.873Z,8.50
2023-02-24T18:05:44.126Z,8.56
2023-02-24T18:08:17.504Z,8.60
2023-02-24T18:10:51.454Z,8.53
2023-02-24T18:13:20.335Z,8.47
2023-02-24T18:15:49.442Z,8.48
2023-02-24T18:18:22.766Z,8.57
2023-02-24T18:20:51.725Z,8.34
2023-02-24T18:23:20.959Z,8.44
2023-02-24T18:28:45.654Z,8.37
2023-02-24T18:31:30.747Z,8.61
2023-02-24T18:34:02.379Z,8.79
2023-02-24T18:37:31.054Z,8.47
2023-02-24T18:40:00.016Z,8.34
2023-02-24T18:42:36.419Z,8.42
2023-02-24T18:45:17.077Z,8.53
2023-02-24T18:54:10.794Z,8.61
2023-02-24T18:56:42.363Z,8.24
2023-02-24T18:59:11.195Z,8.36
2023-02-24T19:04:54.280Z,8.38
2023-02-24T19:07:30.456Z,8.15
2023-02-24T19:10:12.149Z,8.20
2023-02-24T19:13:01.470Z,7.99
2023-02-24T19:15:39.570Z,7.99
2023-02-24T19:18:10.076Z,8.05
2023-02-24T19:20:53.600Z,7.97
2023-02-24T19:23:22.600Z,7.75
2023-02-24T19:28:59.921Z,7.71
2023-02-24T19:34:54.290Z,7.72
2023-02-24T20:45:41.022Z,6.21
2023-02-24T20:48:42.283Z,6.30
2023-02-24T20:54:32.854Z,6.25
2023-02-24T20:57:07.108Z,6.12
2023-02-24T20:59:37.033Z,6.14
2023-02-24T21:02:12.672Z,6.00
2023-02-24T21:04:45.940Z,6.08
2023-02-24T21:07:16.394Z,6.14
2023-02-24T21:09:45.460Z,6.01
2023-02-24T21:12:15.872Z,5.83
2023-02-24T21:14:50.540Z,5.90
2023-02-24T21:17:22.514Z,5.87
2023-02-24T21:19:51.440Z,5.78
2023-02-24T21:22:22.284Z,5.74
2023-02-24T21:24:53.902Z,5.93
2023-02-24T21:27:22.722Z,6.03
2023-02-24T21:29:51.940Z,5.96
2023-02-24T21:32:20.929Z,5.98
2023-02-24T21:34:50.478Z,5.99
2023-02-24T21:37:19.588Z,6.09
2023-02-24T21:39:50.661Z,6.09
2023-02-24T21:42:22.517Z,6.22
2023-02-24T21:44:53.516Z,6.12
2023-02-24T21:47:25.729Z,6.02
2023-02-24T21:49:55.431Z,5.94
2023-02-24T21:55:16.500Z,5.99
2023-02-24T21:57:46.643Z,5.90
2023-02-24T22:00:20.051Z,5.89
2023-02-24T22:02:59.371Z,5.97
2023-02-24T22:05:31.098Z,5.97
2023-02-24T22:07:59.808Z,5.85
2023-02-24T22:10:42.178Z,5.88
2023-02-24T22:13:11.122Z,5.74
2023-02-24T22:15:44.073Z,5.74
2023-02-24T22:18:13.277Z,5.73
2023-02-24T22:20:45.963Z,5.63
2023-02-24T22:23:16.887Z,5.61
2023-02-24T22:25:45.932Z,5.59
2023-02-24T22:28:14.857Z,5.63
2023-02-24T22:30:45.239Z,5.62
2023-02-24T22:33:19.931Z,5.71
2023-02-24T22:35:48.741Z,5.62
2023-02-24T22:38:17.751Z,5.41
2023-02-24T22:40:49.416Z,5.43
2023-02-24T22:43:19.971Z,5.43
2023-02-24T22:45:51.868Z,5.47
2023-02-24T22:51:46.967Z,5.55
2023-02-24T22:57:39.244Z,5.30
2023-02-24T23:03:49.005Z,5.23
2023-02-24T23:06:30.451Z,5.19
2023-02-24T23:12:53.341Z,4.89
2023-02-24T23:25:47.777Z,4.83
2023-02-24T23:34:26.541Z,4.71
2023-02-24T23:36:55.756Z,4.60
2023-02-24T23:39:24.536Z,4.63
2023-02-24T23:41:57.362Z,4.64
2023-02-24T23:44:28.136Z,4.64
2023-02-24T23:46:58.644Z,4.72
2023-02-24T23:49:39.056Z,4.65
2023-02-24T23:51:58.299Z,4.68
2023-02-24T23:54:27.049Z,4.67
2023-02-24T23:57:06.563Z,4.58
2023-02-24T23:59:35.825Z,4.55
